createdAt,value
2022-08-02T00:00:55.570Z,2.00
2022-08-02T00:03:17.696Z,2.10
2022-08-02T00:05:42.184Z,1.97
2022-08-02T00:08:14.348Z,2.43
2022-08-02T00:10:35.577Z,2.20
2022-08-02T00:12:58.188Z,2.57
2022-08-02T00:15:19.748Z,2.37
2022-08-02T00:17:41.208Z,2.53
2022-08-02T00:20:03.190Z,2.57
2022-08-02T00:22:24.922Z,2.40
2022-08-02T00:24:46.266Z,2.50
2022-08-02T00:27:09.623Z,2.20
2022-08-02T00:29:32.913Z,2.50
2022-08-02T00:31:54.341Z,2.87
2022-08-02T00:34:30.379Z,2.87
2022-08-02T00:36:53.461Z,2.67
2022-08-02T00:39:34.441Z,2.50
2022-08-02T00:41:56.491Z,3.00
2022-08-02T00:44:18.413Z,2.70
2022-08-02T00:46:41.149Z,2.37
2022-08-02T00:49:02.827Z,2.67
2022-08-02T00:51:24.258Z,2.77
2022-08-02T00:53:45.525Z,2.50
2022-08-02T00:56:07.408Z,2.43
2022-08-02T00:58:28.784Z,2.40
2022-08-02T01:00:50.057Z,2.80
2022-08-02T01:03:12.989Z,3.13
2022-08-02T01:05:55.787Z,2.97
2022-08-02T01:08:15.712Z,3.23
2022-08-02T01:10:37.238Z,3.17
2022-08-02T01:12:58.470Z,3.40
2022-08-02T01:15:20.053Z,3.30
2022-08-02T01:17:47.182Z,3.17
2022-08-02T01:20:18.156Z,3.13
2022-08-02T01:23:04.515Z,3.20
2022-08-02T01:25:34.739Z,2.90
2022-08-02T01:28:27.748Z,3.17
2022-08-02T01:30:50.805Z,3.53
2022-08-02T01:33:14.333Z,3.93
2022-08-02T01:35:47.436Z,4.13
2022-08-02T01:38:16.144Z,3.80
2022-08-02T01:40:38.906Z,4.00
2022-08-02T01:43:01.693Z,3.90
2022-08-02T01:45:25.567Z,4.10
2022-08-02T01:47:48.070Z,3.67
2022-08-02T01:50:13.331Z,3.63
2022-08-02T01:52:38.205Z,3.90
2022-08-02T01:55:03.090Z,4.17
2022-08-02T01:57:25.913Z,4.73
2022-08-02T01:59:48.184Z,4.73
2022-08-02T02:02:12.012Z,4.90
2022-08-02T02:04:34.294Z,4.67
2022-08-02T02:06:57.688Z,4.27
2022-08-02T02:09:19.461Z,3.60
2022-08-02T02:12:06.322Z,3.87
2022-08-02T02:14:24.504Z,4.00
2022-08-02T02:16:47.901Z,4.10
2022-08-02T02:19:11.595Z,4.43
2022-08-02T02:21:35.140Z,4.03
2022-08-02T02:23:57.638Z,4.90
2022-08-02T02:26:30.931Z,4.80
2022-08-02T02:28:54.165Z,4.20
2022-08-02T02:31:18.897Z,4.33
2022-08-02T02:33:46.029Z,4.33
2022-08-02T02:36:09.417Z,4.63
2022-08-02T02:38:32.971Z,4.90
2022-08-02T02:40:54.549Z,4.93
2022-08-02T02:43:17.193Z,4.93
2022-08-02T02:45:39.442Z,5.17
2022-08-02T02:48:02.117Z,4.10
2022-08-02T02:50:24.045Z,4.60
2022-08-02T02:52:48.106Z,4.67
2022-08-02T02:55:10.234Z,5.20
2022-08-02T02:57:32.233Z,5.60
2022-08-02T02:59:54.887Z,5.47
2022-08-02T03:02:16.377Z,4.90
2022-08-02T03:04:57.101Z,4.50
2022-08-02T03:07:19.274Z,4.80
2022-08-02T03:09:42.074Z,5.40
2022-08-02T03:12:03.944Z,4.70
2022-08-02T03:14:25.131Z,5.13
2022-08-02T03:16:47.928Z,4.67
2022-08-02T03:19:09.085Z,4.90
2022-08-02T03:21:30.487Z,4.97
2022-08-02T03:23:54.590Z,4.70
2022-08-02T03:26:17.713Z,4.97
2022-08-02T03:28:39.034Z,4.90
2022-08-02T03:31:00.834Z,4.90
2022-08-02T03:33:23.028Z,4.53
2022-08-02T03:35:45.189Z,4.63
2022-08-02T03:38:06.999Z,4.23
2022-08-02T03:40:29.227Z,4.50
2022-08-02T03:42:52.246Z,4.30
2022-08-02T03:45:13.941Z,4.27
2022-08-02T03:47:35.645Z,4.03
2022-08-02T03:49:57.315Z,4.30
2022-08-02T03:52:19.397Z,3.77
2022-08-02T03:54:45.892Z,4.30
2022-08-02T03:57:09.694Z,4.47
2022-08-02T03:59:41.401Z,5.00
2022-08-02T04:02:07.153Z,4.40
2022-08-02T04:04:28.883Z,4.83
2022-08-02T04:06:50.337Z,4.60
2022-08-02T04:09:11.581Z,3.80
2022-08-02T04:11:32.129Z,4.27
2022-08-02T04:13:56.689Z,4.30
2022-08-02T04:16:22.383Z,4.43
2022-08-02T04:18:47.945Z,4.00
2022-08-02T04:21:10.846Z,4.87
2022-08-02T04:23:34.394Z,4.80
2022-08-02T04:25:57.841Z,4.47
2022-08-02T04:28:20.211Z,4.00
2022-08-02T04:30:51.087Z,5.00
2022-08-02T04:33:13.980Z,4.63
2022-08-02T04:35:35.819Z,3.83
2022-08-02T04:38:08.311Z,4.33
2022-08-02T04:40:31.897Z,4.00
2022-08-02T04:42:53.462Z,4.63
2022-08-02T04:45:16.406Z,4.43
2022-08-02T04:48:03.447Z,4.10
2022-08-02T04:50:22.502Z,4.03
2022-08-02T04:52:45.963Z,4.20
2022-08-02T04:55:08.452Z,4.00
2022-08-02T04:57:51.238Z,4.63
2022-08-02T05:00:15.847Z,4.53
2022-08-02T05:02:38.638Z,4.20
2022-08-02T05:04:59.998Z,4.20
2022-08-02T05:07:23.570Z,4.60
2022-08-02T05:09:45.145Z,4.40
2022-08-02T05:12:06.899Z,4.50
2022-08-02T05:14:29.842Z,4.07
2022-08-02T05:16:51.570Z,4.00
2022-08-02T05:19:13.094Z,4.00
2022-08-02T05:21:34.866Z,3.80
2022-08-02T05:23:58.349Z,3.70
2022-08-02T05:26:20.150Z,3.60
2022-08-02T05:28:41.541Z,3.67
2022-08-02T05:31:03.139Z,3.70
2022-08-02T05:33:25.219Z,3.80
2022-08-02T05:35:46.864Z,3.80
2022-08-02T05:38:10.074Z,3.70
2022-08-02T05:40:33.558Z,3.40
2022-08-02T05:42:55.195Z,3.07
2022-08-02T05:45:18.018Z,3.07
2022-08-02T05:47:39.881Z,3.07
2022-08-02T05:50:01.399Z,3.47
2022-08-02T05:52:25.876Z,3.53
2022-08-02T05:54:50.608Z,3.43
2022-08-02T05:57:19.098Z,3.20
2022-08-02T05:59:45.555Z,3.90
2022-08-02T06:02:20.244Z,3.63
2022-08-02T06:04:47.947Z,4.70
2022-08-02T06:07:11.437Z,4.77
2022-08-02T06:09:34.310Z,4.47
2022-08-02T06:12:00.691Z,4.30
2022-08-02T06:14:30.607Z,4.20
2022-08-02T06:16:52.995Z,4.63
2022-08-02T06:19:14.697Z,4.43
2022-08-02T06:22:33.962Z,4.27
2022-08-02T06:24:19.947Z,4.43
2022-08-02T06:26:42.697Z,4.73
2022-08-02T06:29:04.929Z,5.40
2022-08-02T06:31:27.869Z,5.00
2022-08-02T06:33:49.501Z,5.00
2022-08-02T06:36:18.119Z,4.90
2022-08-02T06:38:42.514Z,4.50
2022-08-02T06:41:14.953Z,4.40
2022-08-02T06:43:44.697Z,4.83
2022-08-02T06:46:37.823Z,4.60
2022-08-02T06:48:48.633Z,4.67
2022-08-02T06:51:10.320Z,4.43
2022-08-02T06:53:31.803Z,4.33
2022-08-02T06:55:53.068Z,4.00
2022-08-02T06:58:14.926Z,4.37
2022-08-02T07:00:36.178Z,4.93
2022-08-02T07:02:57.551Z,4.40
2022-08-02T07:05:20.349Z,4.80
2022-08-02T07:07:42.008Z,4.63
2022-08-02T07:10:03.309Z,4.63
2022-08-02T07:12:24.550Z,4.20
2022-08-02T07:14:45.860Z,4.33
2022-08-02T07:17:07.160Z,4.27
2022-08-02T07:19:37.555Z,3.90
2022-08-02T07:22:01.978Z,4.43
2022-08-02T07:24:23.190Z,4.83
2022-08-02T07:27:08.577Z,4.40
2022-08-02T07:29:25.611Z,5.00
2022-08-02T07:31:46.934Z,4.73
2022-08-02T07:34:08.203Z,5.33
2022-08-02T07:36:29.574Z,5.60
2022-08-02T07:38:52.965Z,5.30
2022-08-02T07:41:14.733Z,5.80
2022-08-02T07:43:36.109Z,5.23
2022-08-02T07:46:00.720Z,5.43
2022-08-02T07:48:22.617Z,5.87
2022-08-02T07:50:43.649Z,5.27
2022-08-02T07:53:04.792Z,4.97
2022-08-02T07:55:39.309Z,5.63
2022-08-02T07:58:02.097Z,5.67
2022-08-02T08:00:23.542Z,6.57
2022-08-02T08:02:45.371Z,5.87
2022-08-02T08:05:08.103Z,6.20
2022-08-02T08:07:29.543Z,6.57
2022-08-02T08:09:56.407Z,6.57
2022-08-02T08:12:19.768Z,5.73
2022-08-02T08:14:41.143Z,6.23
2022-08-02T08:17:02.240Z,5.90
2022-08-02T08:19:43.930Z,6.50
2022-08-02T08:22:05.995Z,6.90
2022-08-02T08:24:27.344Z,7.07
2022-08-02T08:26:48.590Z,6.93
2022-08-02T08:29:11.184Z,7.23
2022-08-02T08:31:32.539Z,7.20
2022-08-02T08:33:53.882Z,7.00
2022-08-02T08:36:16.588Z,6.80
2022-08-02T08:38:37.866Z,7.80
2022-08-02T08:40:59.389Z,7.40
2022-08-02T08:43:20.570Z,7.50
2022-08-02T08:45:44.981Z,7.33
2022-08-02T08:48:30.158Z,8.13
2022-08-02T08:50:55.368Z,7.70
2022-08-02T08:53:17.562Z,8.40
2022-08-02T08:55:42.456Z,7.83
2022-08-02T08:58:05.014Z,7.53
2022-08-02T09:00:26.367Z,7.90
2022-08-02T09:02:50.607Z,8.23
2022-08-02T09:05:13.887Z,8.80
2022-08-02T09:07:35.916Z,8.27
2022-08-02T09:09:57.158Z,7.47
2022-08-02T09:12:22.268Z,8.67
2022-08-02T09:14:43.962Z,8.33
2022-08-02T09:17:10.138Z,7.30
2022-08-02T09:19:33.449Z,7.63
2022-08-02T09:22:02.907Z,8.63
2022-08-02T09:24:24.866Z,13.90
2022-08-02T09:26:47.133Z,9.27
2022-08-02T09:29:08.194Z,8.13
2022-08-02T09:31:29.675Z,6.30
2022-08-02T09:33:54.352Z,7.57
2022-08-02T09:36:17.881Z,7.10
2022-08-02T09:38:40.582Z,8.43
2022-08-02T09:41:02.586Z,7.90
2022-08-02T09:43:25.038Z,8.07
2022-08-02T09:45:46.500Z,7.50
2022-08-02T09:48:08.863Z,6.90
2022-08-02T09:50:30.554Z,7.10
2022-08-02T09:52:53.333Z,8.03
2022-08-02T09:55:16.075Z,7.53
2022-08-02T09:57:38.633Z,6.80
2022-08-02T10:00:00.037Z,7.50
2022-08-02T10:02:22.687Z,7.10
2022-08-02T10:04:53.356Z,6.07
2022-08-02T10:07:15.568Z,5.90
2022-08-02T10:09:43.205Z,5.57
2022-08-02T10:12:09.329Z,5.50
2022-08-02T10:14:31.185Z,5.93
2022-08-02T10:16:54.629Z,5.23
2022-08-02T10:19:17.521Z,5.50
2022-08-02T10:22:00.737Z,5.73
2022-08-02T10:24:25.033Z,5.63
2022-08-02T10:26:48.653Z,4.87
2022-08-02T10:29:11.116Z,4.27
2022-08-02T10:31:36.468Z,4.07
2022-08-02T10:34:00.078Z,4.63
2022-08-02T10:36:23.686Z,4.70
2022-08-02T10:38:45.956Z,3.90
2022-08-02T10:41:08.054Z,3.90
2022-08-02T10:43:45.694Z,4.43
2022-08-02T10:46:31.964Z,4.40
2022-08-02T10:49:29.673Z,4.33
2022-08-02T10:52:11.521Z,4.07
2022-08-02T10:54:35.306Z,4.30
2022-08-02T10:56:57.836Z,3.70
2022-08-02T10:59:29.329Z,4.07
2022-08-02T11:01:50.728Z,3.70
2022-08-02T11:04:12.024Z,3.50
2022-08-02T11:06:33.466Z,3.80
2022-08-02T11:09:31.456Z,3.40
2022-08-02T11:12:01.916Z,3.70
2022-08-02T11:14:23.557Z,3.20
2022-08-02T11:17:23.453Z,3.60
2022-08-02T11:20:18.699Z,3.10
2022-08-02T11:22:40.646Z,2.50
2022-08-02T11:25:54.485Z,3.00
2022-08-02T11:28:13.693Z,3.43
2022-08-02T11:31:00.067Z,3.10
2022-08-02T11:33:21.440Z,2.47
2022-08-02T11:35:44.812Z,2.20
2022-08-02T11:38:17.973Z,2.10
2022-08-02T11:40:39.554Z,1.90
2022-08-02T11:43:36.460Z,2.00
2022-08-02T11:45:58.295Z,1.73
2022-08-02T11:48:33.355Z,1.90
2022-08-02T11:51:06.146Z,2.50
2022-08-02T11:53:33.070Z,2.30
2022-08-02T11:55:58.027Z,1.90
2022-08-02T11:58:19.633Z,1.93
2022-08-02T12:00:42.020Z,1.83
2022-08-02T12:03:05.297Z,2.10
2022-08-02T12:06:24.221Z,2.20
2022-08-02T12:08:54.964Z,2.00
2022-08-02T12:11:20.171Z,1.80
2022-08-02T12:13:45.127Z,2.10
2022-08-02T12:16:35.937Z,1.80
2022-08-02T12:19:14.741Z,1.60
2022-08-02T12:21:37.769Z,1.90
2022-08-02T12:24:01.363Z,1.70
2022-08-02T12:26:24.119Z,1.70
2022-08-02T12:28:45.710Z,1.57
2022-08-02T12:31:08.498Z,1.70
2022-08-02T12:33:45.512Z,1.60
2022-08-02T12:36:16.264Z,1.70
2022-08-02T12:38:39.250Z,1.70
2022-08-02T12:41:31.081Z,2.00
2022-08-02T12:43:54.049Z,2.17
2022-08-02T12:46:17.363Z,2.07
2022-08-02T12:48:56.627Z,2.40
2022-08-02T12:51:23.988Z,2.50
2022-08-02T12:53:46.682Z,2.70
2022-08-02T12:56:29.077Z,2.37
2022-08-02T12:58:51.439Z,2.60
2022-08-02T13:01:12.802Z,2.60
2022-08-02T13:04:11.065Z,2.50
2022-08-02T13:06:41.931Z,2.50
2022-08-02T13:08:59.524Z,2.57
2022-08-02T13:11:21.439Z,2.37
2022-08-02T13:13:43.435Z,2.40
2022-08-02T13:16:05.330Z,2.50
2022-08-02T13:18:26.891Z,2.60
2022-08-02T13:20:51.612Z,2.47
2022-08-02T13:23:21.161Z,2.63
2022-08-02T13:25:44.429Z,2.50
2022-08-02T13:28:05.610Z,2.43
2022-08-02T13:30:26.980Z,2.40
2022-08-02T13:32:48.156Z,2.40
2022-08-02T13:35:09.880Z,2.23
2022-08-02T13:37:41.751Z,2.20
2022-08-02T13:40:21.195Z,2.33
2022-08-02T13:42:48.189Z,2.63
2022-08-02T13:45:12.771Z,2.57
2022-08-02T13:47:36.239Z,2.20
2022-08-02T13:49:59.153Z,2.30
2022-08-02T13:52:20.748Z,2.37
2022-08-02T13:54:42.806Z,2.40
2022-08-02T13:57:20.989Z,2.47
2022-08-02T14:00:01.605Z,2.43
2022-08-02T14:02:23.125Z,2.30
2022-08-02T14:04:44.709Z,2.30
2022-08-02T14:07:06.378Z,2.40
2022-08-02T14:09:28.327Z,2.43
2022-08-02T14:11:51.540Z,2.13
2022-08-02T14:14:16.669Z,2.60
2022-08-02T14:16:40.011Z,2.20
2022-08-02T14:19:02.602Z,2.10
2022-08-02T14:21:24.151Z,2.00
2022-08-02T14:24:15.851Z,2.23
2022-08-02T14:27:39.374Z,2.10
2022-08-02T14:30:03.652Z,2.20
2022-08-02T14:32:28.185Z,2.33
2022-08-02T14:34:54.306Z,2.30
2022-08-02T14:37:15.975Z,2.10
2022-08-02T14:39:43.032Z,2.17
2022-08-02T14:42:22.871Z,2.40
2022-08-02T14:44:54.461Z,2.40
2022-08-02T14:47:34.102Z,2.37
2022-08-02T14:49:55.579Z,2.10
2022-08-02T14:52:17.315Z,2.10
2022-08-02T14:54:38.418Z,2.33
2022-08-02T14:57:00.589Z,2.50
2022-08-02T14:59:21.840Z,2.08
2022-08-02T15:01:55.776Z,2.33
2022-08-02T15:04:45.395Z,2.53
2022-08-02T15:07:12.183Z,2.33
2022-08-02T15:09:33.772Z,2.30
2022-08-02T15:12:05.361Z,2.20
2022-08-02T15:14:28.978Z,2.40
2022-08-02T15:16:57.003Z,2.15
2022-08-02T15:20:07.700Z,2.42
2022-08-02T15:23:39.640Z,2.45
2022-08-02T15:26:20.908Z,2.60
2022-08-02T15:29:40.940Z,2.50
2022-08-02T15:32:59.705Z,2.40
2022-08-02T15:36:22.638Z,2.40
2022-08-02T15:39:42.515Z,2.43
2022-08-02T15:43:02.633Z,2.40
2022-08-02T15:45:43.353Z,2.37
2022-08-02T15:49:03.513Z,2.57
2022-08-02T15:52:03.113Z,2.43
2022-08-02T15:55:07.648Z,2.70
2022-08-02T15:58:28.033Z,2.53
2022-08-02T16:01:49.779Z,2.60
2022-08-02T16:05:13.832Z,2.60
2022-08-02T16:08:35.647Z,2.70
2022-08-02T16:11:55.614Z,2.80
2022-08-02T16:14:43.488Z,2.80
2022-08-02T16:18:03.845Z,2.70
2022-08-02T16:21:24.541Z,2.70
2022-08-02T16:24:46.054Z,2.70
2022-08-02T16:27:16.457Z,2.67
2022-08-02T16:30:36.776Z,3.00
2022-08-02T16:33:24.144Z,2.60
2022-08-02T16:36:44.351Z,2.90
2022-08-02T16:39:07.384Z,2.70
2022-08-02T16:42:27.237Z,2.50
2022-08-02T16:44:53.660Z,2.73
2022-08-02T16:48:13.618Z,2.80
2022-08-02T16:50:51.294Z,2.77
2022-08-02T16:54:08.295Z,2.83
2022-08-02T16:57:43.191Z,2.87
2022-08-02T17:00:46.362Z,2.83
2022-08-02T17:04:06.844Z,2.80
2022-08-02T17:08:15.008Z,2.90
2022-08-02T17:10:21.528Z,2.80
2022-08-02T17:12:52.418Z,2.87
2022-08-02T17:16:08.003Z,2.67
2022-08-02T17:18:13.878Z,2.60
2022-08-02T17:20:35.562Z,2.90
2022-08-02T17:23:00.633Z,2.90
2022-08-02T17:25:24.671Z,2.67
2022-08-02T17:28:35.518Z,2.70
2022-08-02T17:32:09.300Z,2.80
2022-08-02T17:35:03.713Z,2.57
2022-08-02T17:38:11.369Z,2.70
2022-08-02T17:40:45.319Z,2.73
2022-08-02T17:43:56.700Z,3.00
2022-08-02T17:46:59.605Z,2.67
2022-08-02T17:50:20.428Z,2.73
2022-08-02T17:52:51.700Z,3.13
2022-08-02T17:56:14.582Z,3.00
2022-08-02T17:58:53.929Z,2.90
2022-08-02T18:01:23.774Z,3.57
2022-08-02T18:03:46.255Z,2.90
2022-08-02T18:06:09.188Z,2.90
2022-08-02T18:08:31.089Z,3.03
2022-08-02T18:10:53.817Z,3.10
2022-08-02T18:13:16.973Z,2.83
2022-08-02T18:15:38.399Z,2.97
2022-08-02T18:17:59.751Z,3.10
2022-08-02T18:20:21.223Z,2.90
2022-08-02T18:22:44.817Z,3.23
2022-08-02T18:25:09.124Z,2.87
2022-08-02T18:27:31.306Z,2.97
2022-08-02T18:30:00.523Z,3.00
2022-08-02T18:33:54.945Z,3.33
2022-08-02T18:35:17.169Z,3.20
2022-08-02T18:37:43.701Z,3.30
2022-08-02T18:40:09.697Z,3.33
2022-08-02T18:42:31.072Z,3.50
2022-08-02T18:44:54.957Z,3.43
2022-08-02T18:47:18.317Z,3.40
2022-08-02T18:49:46.925Z,3.77
2022-08-02T18:52:12.483Z,3.47
2022-08-02T18:54:34.521Z,3.63
2022-08-02T18:56:56.445Z,3.93
2022-08-02T18:59:19.157Z,3.77
2022-08-02T19:01:50.755Z,3.77
2022-08-02T19:04:13.265Z,3.90
2022-08-02T19:06:34.853Z,3.83
2022-08-02T19:09:05.888Z,3.60
2022-08-02T19:11:35.326Z,3.87
2022-08-02T19:13:56.975Z,4.30
2022-08-02T19:16:19.297Z,3.67
2022-08-02T19:18:41.917Z,4.00
2022-08-02T19:21:05.828Z,3.90
2022-08-02T19:23:29.611Z,4.10
2022-08-02T19:28:32.417Z,4.20
2022-08-02T19:30:55.322Z,3.97
2022-08-02T19:33:54.364Z,3.80
2022-08-02T19:36:01.791Z,4.07
2022-08-02T19:38:25.533Z,4.00
2022-08-02T19:40:48.036Z,3.93
2022-08-02T19:44:25.305Z,3.80
2022-08-02T19:45:52.270Z,4.33
2022-08-02T19:48:24.029Z,4.20
2022-08-02T19:50:49.183Z,4.20
2022-08-02T19:53:12.180Z,4.40
2022-08-02T19:56:01.588Z,4.33
2022-08-02T19:58:15.288Z,4.53
2022-08-02T20:00:37.669Z,4.00
2022-08-02T20:03:00.135Z,4.60
2022-08-02T20:05:24.029Z,4.27
2022-08-02T20:07:55.112Z,4.60
2022-08-02T20:10:23.918Z,4.20
2022-08-02T20:12:46.726Z,4.03
2022-08-02T20:15:15.360Z,4.37
2022-08-02T20:17:38.913Z,4.30
2022-08-02T20:20:10.264Z,4.13
2022-08-02T20:22:31.734Z,4.30
2022-08-02T20:24:53.228Z,4.20
2022-08-02T20:27:21.746Z,3.90
2022-08-02T20:32:28.013Z,3.43
2022-08-02T20:34:50.148Z,3.90
2022-08-02T20:37:56.178Z,4.10
2022-08-02T20:39:53.781Z,4.33
2022-08-02T20:42:23.424Z,4.57
2022-08-02T20:44:46.104Z,3.80
2022-08-02T20:47:07.982Z,4.37
2022-08-02T20:49:40.694Z,4.13
2022-08-02T20:52:03.441Z,4.10
2022-08-02T20:54:44.938Z,4.33
2022-08-02T20:57:07.941Z,3.90
2022-08-02T20:59:32.109Z,4.20
2022-08-02T21:01:57.415Z,4.57
2022-08-02T21:04:19.520Z,4.30
2022-08-02T21:06:41.242Z,4.40
2022-08-02T21:09:06.023Z,4.40
2022-08-02T21:11:33.314Z,4.60
2022-08-02T21:14:07.516Z,4.37
2022-08-02T21:16:31.394Z,4.60
2022-08-02T21:18:55.828Z,4.47
2022-08-02T21:21:21.484Z,4.47
2022-08-02T21:23:44.930Z,4.57
2022-08-02T21:26:10.836Z,4.53
2022-08-02T21:28:43.328Z,4.97
2022-08-02T21:31:15.943Z,4.30
2022-08-02T21:33:47.213Z,4.00
2022-08-02T21:36:20.475Z,4.50
2022-08-02T21:38:42.686Z,4.50
2022-08-02T21:41:06.095Z,4.53
2022-08-02T21:43:35.355Z,4.40
2022-08-02T21:46:00.205Z,4.73
2022-08-02T21:48:21.439Z,4.60
2022-08-02T21:50:47.205Z,4.63
2022-08-02T21:53:13.316Z,4.70
2022-08-02T21:56:01.159Z,4.57
2022-08-02T21:58:21.638Z,4.53
2022-08-02T22:00:45.506Z,4.30
2022-08-02T22:03:22.582Z,4.30
2022-08-02T22:05:47.219Z,4.70
2022-08-02T22:08:10.478Z,4.53
2022-08-02T22:10:52.170Z,4.80
2022-08-02T22:13:14.321Z,4.67
2022-08-02T22:15:41.061Z,4.67
2022-08-02T22:18:02.888Z,4.57
2022-08-02T22:20:25.142Z,4.53
2022-08-02T22:22:48.257Z,4.70
2022-08-02T22:25:26.927Z,4.50
2022-08-02T22:30:36.752Z,4.53
2022-08-02T22:33:15.646Z,4.87
2022-08-02T22:35:36.968Z,4.87
2022-08-02T22:38:14.856Z,4.87
2022-08-02T22:40:41.368Z,4.53
2022-08-02T22:43:02.848Z,4.67
2022-08-02T22:45:24.773Z,4.90
2022-08-02T22:47:51.154Z,4.60
2022-08-02T22:50:13.103Z,4.60
2022-08-02T22:52:34.982Z,4.90
2022-08-02T22:54:57.279Z,4.37
2022-08-02T22:57:30.533Z,4.53
2022-08-02T22:58:48.002Z,4.07
2022-08-02T22:59:04.897Z,4.63
2022-08-02T22:59:06.569Z,3.60
2022-08-02T22:59:53.117Z,5.03
2022-08-02T23:02:14.796Z,4.60
2022-08-02T23:04:37.107Z,4.70
2022-08-02T23:06:58.964Z,4.40
2022-08-02T23:09:20.545Z,4.70
2022-08-02T23:11:44.092Z,4.83
2022-08-02T23:14:06.969Z,4.80
2022-08-02T23:16:57.559Z,4.93
2022-08-02T23:19:37.452Z,4.17
2022-08-02T23:22:01.332Z,4.27
2022-08-02T23:24:23.710Z,5.30
2022-08-02T23:26:45.142Z,4.37
2022-08-02T23:29:08.185Z,4.63
2022-08-02T23:31:37.360Z,4.77
2022-08-02T23:34:04.200Z,4.80
2022-08-02T23:36:25.901Z,4.40
2022-08-02T23:38:47.115Z,4.53
2022-08-02T23:41:08.451Z,4.43
2022-08-02T23:43:29.978Z,4.53
2022-08-02T23:46:02.122Z,4.67
2022-08-02T23:48:23.632Z,4.57
2022-08-02T23:50:45.066Z,4.77
2022-08-02T23:53:06.423Z,4.63
2022-08-02T23:55:27.543Z,4.13
2022-08-02T23:57:48.775Z,4.17
